Time;durP1;ratioP1;P1;durP2;ratioP2;P2;SDS_P1;SDS_P2;PMS_P1;PMS_P2;Temp;Humidity;BMP_temperature;BMP_pressure;BME280_temperature;BME280_humidity;BME280_pressure;Samples;Min_cycle;Max_cycle;Signal;HPM_P1;HPM_P2
2022/01/15 00:00:34;;;;;;;47.22;19.10;;;;;;;3.75;100.00;103297.94;5066190;28;20140;-57
2022/01/15 00:03:04;;;;;;;42.80;15.65;;;;;;;3.71;100.00;103297.09;5068641;28;20491;-56
2022/01/15 00:05:32;;;;;;;42.58;16.38;;;;;;;3.70;100.00;103288.41;5070435;28;20040;-56
2022/01/15 00:08:02;;;;;;;47.78;16.35;;;;;;;3.72;100.00;103294.50;5070691;28;20049;-56
2022/01/15 00:10:31;;;;;;;46.58;16.45;;;;;;;3.69;100.00;103289.25;5071589;28;20105;-56
2022/01/15 00:13:02;;;;;;;41.25;15.50;;;;;;;3.73;100.00;103287.53;5071492;28;20048;-56
2022/01/15 00:15:34;;;;;;;46.47;16.17;;;;;;;3.71;100.00;103287.53;5070594;28;20054;-56
2022/01/15 00:18:09;;;;;;;47.70;16.98;;;;;;;3.76;100.00;103284.94;5067054;28;20048;-56
2022/01/15 00:20:38;;;;;;;42.10;15.98;;;;;;;3.82;100.00;103279.75;5065642;28;20079;-56
2022/01/15 00:23:06;;;;;;;39.72;14.57;;;;;;;3.79;100.00;103269.34;5070624;28;20060;-57
2022/01/15 00:25:35;;;;;;;40.20;15.18;;;;;;;3.74;100.00;103258.03;5071800;28;20055;-56
2022/01/15 00:28:05;;;;;;;43.83;14.43;;;;;;;3.80;100.00;103252.84;5074814;28;20044;-54
2022/01/15 00:30:33;;;;;;;43.67;16.02;;;;;;;3.72;100.00;103257.16;5074970;28;20040;-56
2022/01/15 00:33:01;;;;;;;42.30;15.88;;;;;;;3.74;100.00;103255.44;5075030;28;20490;-56
2022/01/15 00:35:29;;;;;;;42.05;15.43;;;;;;;3.71;100.00;103263.25;5074940;28;20040;-55
2022/01/15 00:37:58;;;;;;;42.58;17.42;;;;;;;3.66;100.00;103257.16;5075107;28;20052;-56
2022/01/15 00:40:26;;;;;;;42.55;16.38;;;;;;;3.69;100.00;103251.94;5075066;28;20053;-56
2022/01/15 00:42:54;;;;;;;47.38;16.25;;;;;;;3.65;100.00;103250.22;5074897;28;20072;-56
2022/01/15 00:45:23;;;;;;;48.63;16.20;;;;;;;3.59;100.00;103245.00;5074954;28;20033;-55
2022/01/15 00:47:52;;;;;;;46.90;15.85;;;;;;;3.69;100.00;103244.16;5074479;28;20746;-55
2022/01/15 00:50:21;;;;;;;50.80;17.30;;;;;;;3.63;100.00;103237.19;5074557;28;20087;-55
2022/01/15 00:52:50;;;;;;;43.28;14.63;;;;;;;3.63;100.00;103239.81;5074693;28;20056;-57
2022/01/15 00:55:20;;;;;;;38.33;13.90;;;;;;;3.68;100.00;103245.88;5074580;28;20048;-57
2022/01/15 00:57:48;;;;;;;36.92;14.73;;;;;;;3.65;100.00;103239.78;5074979;28;20370;-57
2022/01/15 01:00:20;;;;;;;37.38;13.60;;;;;;;3.65;100.00;103232.84;5074852;28;20549;-56
2022/01/15 01:02:50;;;;;;;40.20;14.27;;;;;;;3.60;100.00;103234.59;5074566;28;20055;-57
2022/01/15 01:05:21;;;;;;;39.63;13.70;;;;;;;3.67;100.00;103227.66;5074514;28;20048;-56
2022/01/15 01:07:49;;;;;;;34.00;12.50;;;;;;;3.62;100.00;103237.19;5073151;28;20112;-56
2022/01/15 01:10:44;;;;;;;35.17;11.65;;;;;;;3.61;100.00;103233.72;5074365;28;20425;-56
2022/01/15 01:13:38;;;;;;;34.97;11.93;;;;;;;3.61;100.00;103231.09;5074085;28;20048;-52
2022/01/15 01:22:23;;;;;;;36.67;12.98;;;;;;;3.49;100.00;103221.56;5073747;28;20055;-54
2022/01/15 01:24:37;;;;;;;34.42;12.48;;;;;;;3.54;100.00;103225.03;5073454;28;20044;-54
2022/01/15 01:27:11;;;;;;;36.25;12.75;;;;;;;3.51;100.00;103217.22;5073372;28;20498;-54
2022/01/15 01:29:51;;;;;;;39.17;12.93;;;;;;;3.46;100.00;103223.28;5068677;28;20048;-54
2022/01/15 01:32:38;;;;;;;41.17;13.50;;;;;;;3.41;100.00;103210.25;5071114;28;20047;-54
2022/01/15 01:35:13;;;;;;;43.10;13.18;;;;;;;3.46;100.00;103212.88;5073962;28;20040;-54
2022/01/15 01:37:45;;;;;;;39.28;12.50;;;;;;;3.47;100.00;103215.47;5073829;28;20032;-53
2022/01/15 01:40:24;;;;;;;39.30;14.15;;;;;;;3.50;100.00;103212.88;5072299;28;20052;-54
2022/01/15 01:42:59;;;;;;;34.65;12.25;;;;;;;3.46;100.00;103215.47;5072074;28;20139;-54
2022/01/15 01:45:28;;;;;;;34.80;11.85;;;;;;;3.46;100.00;103212.88;5067353;28;20052;-53
2022/01/15 01:47:56;;;;;;;34.58;12.15;;;;;;;3.43;100.00;103211.13;5072782;28;20065;-53
2022/01/15 01:50:27;;;;;;;29.00;10.27;;;;;;;3.38;100.00;103212.84;5073289;28;20407;-55
2022/01/15 01:52:58;;;;;;;33.17;10.80;;;;;;;3.36;100.00;103212.84;5073369;28;20036;-56
2022/01/15 01:55:28;;;;;;;29.33;10.10;;;;;;;3.34;100.00;103203.28;5073405;28;20506;-57
2022/01/15 01:57:58;;;;;;;39.72;12.00;;;;;;;3.31;100.00;103196.38;5073247;28;20113;-55
2022/01/15 02:00:28;;;;;;;32.47;11.65;;;;;;;3.27;100.00;103197.19;5073265;28;20063;-56
2022/01/15 02:02:57;;;;;;;28.50;10.45;;;;;;;3.29;100.00;103210.22;5072827;28;20436;-54
2022/01/15 02:05:27;;;;;;;30.23;10.48;;;;;;;3.30;100.00;103210.22;5072574;28;20053;-56
2022/01/15 02:07:55;;;;;;;29.58;10.25;;;;;;;3.44;100.00;103215.47;5072710;28;20048;-55
2022/01/15 02:10:23;;;;;;;31.08;11.02;;;;;;;3.27;100.00;103196.34;5072645;28;20043;-54
2022/01/15 02:12:54;;;;;;;26.65;9.80;;;;;;;3.30;100.00;103196.34;5071374;28;20054;-56
2022/01/15 02:15:24;;;;;;;33.85;10.70;;;;;;;3.25;100.00;103206.75;5072985;28;20044;-53
2022/01/15 02:17:53;;;;;;;26.83;10.07;;;;;;;3.24;100.00;103205.00;5073035;28;20063;-56
2022/01/15 02:20:48;;;;;;;28.85;10.35;;;;;;;3.27;100.00;103201.53;5072782;28;20044;-57
2022/01/15 02:23:34;;;;;;;36.53;10.32;;;;;;;3.22;100.00;103185.94;5072987;28;20441;-53
2022/01/15 02:26:05;;;;;;;30.70;9.93;;;;;;;3.15;100.00;103185.03;5072973;28;20036;-53
2022/01/15 02:28:35;;;;;;;26.77;9.02;;;;;;;3.19;100.00;103197.19;5072858;28;20048;-56
2022/01/15 02:31:05;;;;;;;26.05;10.23;;;;;;;3.20;100.00;103196.34;5071726;28;20057;-54
2022/01/15 02:33:34;;;;;;;31.02;10.52;;;;;;;3.14;100.00;103183.28;5072686;28;20054;-53
2022/01/15 02:36:08;;;;;;;30.52;9.68;;;;;;;3.17;100.00;103179.84;5072155;28;20044;-55
2022/01/15 02:38:36;;;;;;;29.25;10.07;;;;;;;3.12;100.00;103172.03;5071736;28;20115;-56
2022/01/15 02:41:05;;;;;;;27.67;9.70;;;;;;;3.16;100.00;103173.78;5068504;28;20045;-54
2022/01/15 02:43:34;;;;;;;25.52;9.27;;;;;;;3.16;100.00;103171.19;5069979;28;20496;-54
2022/01/15 02:46:18;;;;;;;20.92;7.93;;;;;;;3.22;100.00;103158.19;5069829;28;20127;-56
2022/01/15 02:48:48;;;;;;;22.30;7.75;;;;;;;3.25;100.00;103153.88;5066765;28;20045;-56
2022/01/15 02:51:18;;;;;;;22.55;7.65;;;;;;;3.24;100.00;103160.78;5072176;28;20044;-56
2022/01/15 02:53:50;;;;;;;28.13;9.10;;;;;;;3.20;100.00;103154.72;5072780;28;20562;-54
2022/01/15 02:56:18;;;;;;;26.10;8.52;;;;;;;3.24;100.00;103150.38;5072568;28;20041;-56
2022/01/15 02:58:46;;;;;;;24.27;8.32;;;;;;;3.26;100.00;103145.16;5072608;28;20062;-55
2022/01/15 03:01:14;;;;;;;22.60;8.70;;;;;;;3.19;100.00;103149.47;5072172;28;20491;-57
2022/01/15 03:03:42;;;;;;;26.90;9.40;;;;;;;3.21;100.00;103150.38;5072196;28;20127;-57
2022/01/15 03:06:11;;;;;;;25.55;9.20;;;;;;;3.21;100.00;103140.81;5072304;28;20555;-57
2022/01/15 03:08:41;;;;;;;24.60;9.30;;;;;;;3.16;100.00;103137.38;5072281;28;20044;-57
2022/01/15 03:11:10;;;;;;;26.40;8.10;;;;;;;3.18;100.00;103129.56;5072171;28;20506;-57
2022/01/15 03:13:39;;;;;;;24.83;8.93;;;;;;;3.20;100.00;103127.81;5071675;28;20094;-57
2022/01/15 03:16:09;;;;;;;29.05;10.65;;;;;;;3.17;100.00;103117.44;5071661;28;20048;-57
2022/01/15 03:18:37;;;;;;;32.42;8.90;;;;;;;3.19;100.00;103121.75;5072001;28;20064;-56
2022/01/15 03:21:05;;;;;;;30.67;10.20;;;;;;;3.08;100.00;103113.09;5071992;28;20041;-56
2022/01/15 03:23:33;;;;;;;30.52;10.07;;;;;;;3.15;100.00;103112.22;5072312;28;20044;-57
2022/01/15 03:26:03;;;;;;;28.73;10.25;;;;;;;3.14;100.00;103107.88;5072007;28;20040;-56
2022/01/15 03:28:32;;;;;;;28.00;10.00;;;;;;;3.09;100.00;103104.41;5071867;28;20055;-57
2022/01/15 03:31:00;;;;;;;26.55;9.57;;;;;;;3.12;100.00;103099.22;5071828;28;20143;-56
2022/01/15 03:33:28;;;;;;;28.23;10.23;;;;;;;3.08;100.00;103087.09;5071936;28;20056;-57
2022/01/15 03:35:56;;;;;;;30.92;9.57;;;;;;;3.09;100.00;103088.78;5072312;28;20439;-56
2022/01/15 03:38:24;;;;;;;33.28;10.10;;;;;;;3.13;100.00;103090.53;5071993;28;20041;-57
2022/01/15 03:40:54;;;;;;;29.73;9.75;;;;;;;3.13;100.00;103082.72;5071723;28;20044;-56
2022/01/15 03:43:23;;;;;;;30.05;8.93;;;;;;;3.12;100.00;103077.53;5071870;28;20454;-57
2022/01/15 03:45:52;;;;;;;24.35;8.73;;;;;;;3.11;100.00;103076.69;5071803;28;20047;-57
2022/01/15 03:48:20;;;;;;;28.23;8.80;;;;;;;3.06;100.00;103078.41;5071882;28;20094;-56
2022/01/15 03:50:48;;;;;;;21.60;8.52;;;;;;;3.12;100.00;103078.41;5071937;28;20082;-57
2022/01/15 03:53:16;;;;;;;25.58;9.05;;;;;;;3.03;100.00;103083.59;5071733;28;20086;-57
2022/01/15 03:55:44;;;;;;;21.75;7.35;;;;;;;2.99;100.00;103082.72;5071891;28;20082;-56
2022/01/15 03:58:12;;;;;;;21.25;7.93;;;;;;;3.07;100.00;103080.13;5071380;28;20049;-56
2022/01/15 04:00:42;;;;;;;21.10;8.23;;;;;;;3.09;100.00;103073.19;5066779;28;20067;-56
2022/01/15 04:03:11;;;;;;;21.58;8.73;;;;;;;3.10;100.00;103074.94;5073941;28;20554;-57
2022/01/15 04:05:39;;;;;;;18.50;7.75;;;;;;;3.10;100.00;103079.28;5075804;28;20079;-57
2022/01/15 04:08:08;;;;;;;18.67;7.85;;;;;;;3.11;100.00;103081.00;5075796;28;20555;-57
2022/01/15 04:10:36;;;;;;;18.35;8.38;;;;;;;3.12;100.00;103074.94;5075847;28;20549;-56
2022/01/15 04:13:04;;;;;;;18.98;7.97;;;;;;;2.99;100.00;103074.91;5075231;28;20522;-56
2022/01/15 04:15:32;;;;;;;19.25;8.57;;;;;;;2.93;100.00;103071.44;5075528;28;20044;-56
2022/01/15 04:18:02;;;;;;;23.05;9.23;;;;;;;3.06;100.00;103074.94;5075372;28;20040;-57
2022/01/15 04:20:30;;;;;;;21.67;8.15;;;;;;;3.02;100.00;103066.25;5075317;28;20098;-58
2022/01/15 04:22:58;;;;;;;21.40;8.35;;;;;;;3.06;100.00;103062.78;5074862;28;20449;-56
2022/01/15 04:25:26;;;;;;;18.88;8.77;;;;;;;2.98;100.00;103062.78;5074817;28;20044;-56
2022/01/15 04:27:56;;;;;;;19.25;8.63;;;;;;;2.98;100.00;103048.91;5074800;28;20499;-56
2022/01/15 04:30:25;;;;;;;18.70;8.93;;;;;;;3.06;100.00;103059.34;5075059;28;20048;-56
2022/01/15 04:32:55;;;;;;;23.15;9.07;;;;;;;3.02;100.00;103050.66;5074913;28;20053;-56
2022/01/15 04:35:24;;;;;;;21.25;9.80;;;;;;;3.10;100.00;103048.94;5090190;28;20056;-57
2022/01/15 04:37:59;;;;;;;21.25;10.32;;;;;;;2.98;100.00;103051.50;5074558;28;20055;-57
2022/01/15 04:40:27;;;;;;;22.27;10.23;;;;;;;3.01;100.00;103038.50;5074673;28;20054;-57
2022/01/15 04:42:55;;;;;;;22.70;10.10;;;;;;;3.02;100.00;103046.31;5074482;28;20062;-57
2022/01/15 04:45:24;;;;;;;26.35;12.13;;;;;;;2.98;100.00;103041.97;5074040;28;20526;-56
2022/01/15 04:47:52;;;;;;;26.38;11.90;;;;;;;2.92;100.00;103044.56;5074088;28;20072;-56
2022/01/15 04:50:21;;;;;;;27.55;11.63;;;;;;;2.93;100.00;103042.81;5074902;28;20517;-56
2022/01/15 04:52:50;;;;;;;25.38;12.07;;;;;;;2.93;100.00;103046.31;5074777;28;20552;-56
2022/01/15 04:55:19;;;;;;;24.25;10.95;;;;;;;2.97;100.00;103048.06;5074681;28;20056;-56
2022/01/15 04:57:47;;;;;;;27.02;11.75;;;;;;;3.00;100.00;103032.47;5074819;28;20058;-57
2022/01/15 05:00:18;;;;;;;30.75;12.52;;;;;;;3.01;100.00;103028.09;5074712;28;20052;-56
2022/01/15 05:02:46;;;;;;;27.88;12.00;;;;;;;2.90;100.00;103035.03;5074707;28;20102;-56
2022/01/15 05:05:14;;;;;;;29.67;12.32;;;;;;;2.94;100.00;103039.38;5074499;28;20055;-57
2022/01/15 05:07:43;;;;;;;26.63;12.52;;;;;;;2.97;100.00;103042.84;5074575;28;20051;-56
2022/01/15 05:10:16;;;;;;;26.02;10.85;;;;;;;2.98;100.00;103036.78;5074332;28;20040;-57
2022/01/15 05:12:46;;;;;;;25.25;10.43;;;;;;;3.02;100.00;103040.25;5073857;28;20078;-56
2022/01/15 05:15:16;;;;;;;26.05;10.65;;;;;;;3.02;100.00;103032.44;5074335;28;20056;-56
2022/01/15 05:17:45;;;;;;;26.00;10.52;;;;;;;3.02;100.00;103040.25;5074340;28;20048;-56
2022/01/15 05:20:17;;;;;;;26.92;10.43;;;;;;;3.01;100.00;103028.09;5074089;28;20041;-56
2022/01/15 05:22:45;;;;;;;24.80;10.07;;;;;;;2.92;100.00;103018.59;5074353;28;20041;-56
2022/01/15 05:25:17;;;;;;;23.00;10.27;;;;;;;2.98;100.00;103012.50;5072887;28;20051;-56
2022/01/15 05:27:46;;;;;;;27.35;11.27;;;;;;;3.02;100.00;103011.66;5074297;28;20059;-57
2022/01/15 05:30:15;;;;;;;28.13;11.38;;;;;;;3.08;100.00;103016.88;5074239;28;20094;-57
2022/01/15 05:32:43;;;;;;;25.58;11.73;;;;;;;3.05;100.00;103011.66;5074121;28;20041;-57
2022/01/15 05:35:12;;;;;;;26.80;11.23;;;;;;;3.04;100.00;103008.19;5073976;28;20049;-54
2022/01/15 05:37:40;;;;;;;25.80;10.98;;;;;;;3.02;100.00;103019.47;5089743;28;20056;-53
2022/01/15 05:40:09;;;;;;;26.88;11.90;;;;;;;3.03;100.00;103016.84;5073885;28;20154;-56
2022/01/15 05:42:39;;;;;;;28.15;12.27;;;;;;;2.96;100.00;103022.91;5073668;28;20046;-53
2022/01/15 05:45:08;;;;;;;25.90;11.25;;;;;;;2.99;100.00;103001.25;5073785;28;20040;-57
2022/01/15 05:47:36;;;;;;;26.58;10.25;;;;;;;2.92;100.00;103000.38;5073750;28;20045;-57
2022/01/15 05:50:05;;;;;;;26.90;11.27;;;;;;;2.90;100.00;103001.25;5073308;28;20074;-52
2022/01/15 05:52:33;;;;;;;26.85;10.55;;;;;;;2.87;100.00;103009.91;5073300;28;20101;-54
2022/01/15 05:55:01;;;;;;;28.35;10.73;;;;;;;2.93;100.00;103003.84;5073380;28;20079;-54
2022/01/15 05:57:29;;;;;;;25.95;10.90;;;;;;;2.92;100.00;102996.91;5089129;28;20060;-52
2022/01/15 05:59:59;;;;;;;24.27;10.85;;;;;;;2.95;100.00;102999.53;5073424;28;20094;-55
2022/01/15 06:02:27;;;;;;;25.35;10.77;;;;;;;2.92;100.00;103005.59;5073127;28;20053;-54
2022/01/15 06:04:55;;;;;;;26.35;10.00;;;;;;;2.90;100.00;103002.09;5072850;28;20067;-52
2022/01/15 06:07:23;;;;;;;33.70;11.25;;;;;;;2.83;100.00;102985.63;5073066;28;20040;-54
2022/01/15 06:09:51;;;;;;;24.50;9.52;;;;;;;2.87;100.00;102987.34;5071705;28;20051;-52
2022/01/15 06:12:27;;;;;;;28.88;10.73;;;;;;;2.87;100.00;102995.16;5069667;28;20076;-53
2022/01/15 06:14:55;;;;;;;26.75;11.27;;;;;;;2.90;100.00;102983.91;5072134;28;20495;-51
2022/01/15 06:17:25;;;;;;;29.73;11.65;;;;;;;2.87;100.00;102976.97;5072634;28;20052;-52
2022/01/15 06:19:53;;;;;;;28.90;11.50;;;;;;;2.91;100.00;102980.44;5068590;28;20037;-54
2022/01/15 06:22:21;;;;;;;28.02;11.40;;;;;;;2.91;100.00;102983.03;5070011;28;20109;-55
2022/01/15 06:24:49;;;;;;;37.05;15.80;;;;;;;2.87;100.00;102986.50;5069956;28;20418;-50
2022/01/15 06:27:19;;;;;;;39.03;13.30;;;;;;;2.92;100.00;102968.31;5068421;28;20406;-55
2022/01/15 06:29:47;;;;;;;34.58;13.82;;;;;;;2.88;100.00;102970.91;5072253;28;20093;-54
2022/01/15 06:32:16;;;;;;;34.85;14.68;;;;;;;2.94;100.00;102976.97;5070706;28;20044;-52
2022/01/15 06:34:45;;;;;;;34.35;13.50;;;;;;;2.92;100.00;102961.38;5063588;28;20041;-55
2022/01/15 06:37:13;;;;;;;31.35;12.55;;;;;;;2.89;100.00;102953.59;5069082;28;20063;-53
2022/01/15 06:39:41;;;;;;;39.58;14.13;;;;;;;2.90;100.00;102950.09;5072834;28;20086;-53
2022/01/15 06:42:09;;;;;;;31.67;12.40;;;;;;;2.84;100.00;102948.38;5068788;28;20056;-53
2022/01/15 06:44:37;;;;;;;36.30;13.35;;;;;;;2.88;100.00;102954.47;5067929;28;20066;-52
2022/01/15 06:47:06;;;;;;;38.30;12.88;;;;;;;2.90;100.00;102944.06;5072334;28;20048;-53
2022/01/15 06:49:34;;;;;;;33.53;13.63;;;;;;;2.87;100.00;102940.56;5072027;28;20457;-53
2022/01/15 06:52:05;;;;;;;44.75;14.10;;;;;;;2.84;100.00;102948.38;5072049;28;20051;-55
2022/01/15 06:54:33;;;;;;;35.38;12.98;;;;;;;2.85;100.00;102947.53;5072274;28;20044;-52
2022/01/15 06:57:02;;;;;;;35.38;13.25;;;;;;;2.78;100.00;102938.00;5072482;28;20052;-54
2022/01/15 06:59:30;;;;;;;46.92;13.43;;;;;;;2.73;100.00;102933.63;5072401;28;20399;-53
2022/01/15 07:01:58;;;;;;;41.55;13.60;;;;;;;2.72;100.00;102942.31;5070518;28;20094;-55
2022/01/15 07:04:29;;;;;;;39.88;14.20;;;;;;;2.72;100.00;102939.72;5067790;28;20047;-54
2022/01/15 07:06:57;;;;;;;45.67;14.10;;;;;;;2.76;100.00;102936.25;5071688;28;20499;-55
2022/01/15 07:09:26;;;;;;;57.63;14.60;;;;;;;2.72;100.00;102937.97;5067964;28;20106;-53
2022/01/15 07:11:56;;;;;;;44.35;15.25;;;;;;;2.70;100.00;102942.31;5068552;28;20052;-55
2022/01/15 07:14:24;;;;;;;39.70;15.80;;;;;;;2.67;100.00;102942.28;5072427;28;20055;-54
2022/01/15 07:16:52;;;;;;;50.60;15.57;;;;;;;2.70;100.00;102947.50;5072397;28;20052;-53
2022/01/15 07:19:20;;;;;;;48.50;16.70;;;;;;;2.70;100.00;102939.72;5072183;28;20483;-53
2022/01/15 07:21:48;;;;;;;41.67;15.73;;;;;;;2.72;100.00;102950.97;5072199;28;20049;-52
2022/01/15 07:24:17;;;;;;;45.05;16.77;;;;;;;2.73;100.00;102944.91;5068183;28;20128;-54
2022/01/15 07:26:47;;;;;;;45.03;15.77;;;;;;;2.72;100.00;102945.78;5068189;28;20160;-54
2022/01/15 07:29:16;;;;;;;51.03;17.35;;;;;;;2.79;100.00;102944.03;5071993;28;20128;-53
2022/01/15 07:31:46;;;;;;;49.88;16.75;;;;;;;2.75;100.00;102937.97;5072010;28;20053;-55
2022/01/15 07:34:15;;;;;;;65.53;18.17;;;;;;;2.74;100.00;102940.56;5068266;28;20387;-51
2022/01/15 07:36:43;;;;;;;54.28;16.48;;;;;;;2.73;100.00;102939.72;5072340;28;20052;-54
2022/01/15 07:39:12;;;;;;;63.85;17.17;;;;;;;2.70;100.00;102932.78;5076265;28;20060;-55
2022/01/15 07:41:40;;;;;;;59.55;16.63;;;;;;;2.75;100.00;102929.31;5074480;28;20383;-54
2022/01/15 07:44:09;;;;;;;59.53;17.08;;;;;;;2.64;100.00;102937.09;5071464;28;20053;-53
2022/01/15 07:46:38;;;;;;;54.17;16.50;;;;;;;2.61;100.00;102945.75;5074085;28;20403;-51
2022/01/15 07:49:06;;;;;;;61.08;17.75;;;;;;;2.66;100.00;102943.19;5075775;28;20048;-53
2022/01/15 07:51:34;;;;;;;52.13;19.02;;;;;;;2.70;100.00;102939.72;5075756;28;20593;-54
2022/01/15 07:54:03;;;;;;;52.70;18.45;;;;;;;2.74;100.00;102940.56;5076065;28;20056;-56
2022/01/15 07:56:31;;;;;;;58.33;20.30;;;;;;;2.75;100.00;102937.97;5075696;28;20044;-54
2022/01/15 07:58:59;;;;;;;59.50;19.42;;;;;;;2.82;100.00;102938.84;5074467;28;20076;-54
2022/01/15 08:01:28;;;;;;;56.72;19.98;;;;;;;2.88;100.00;102938.88;5075004;28;20044;-54
2022/01/15 08:03:57;;;;;;;55.75;20.98;;;;;;;2.85;100.00;102938.84;5070702;28;20048;-54
2022/01/15 08:06:25;;;;;;;60.20;19.50;;;;;;;2.87;100.00;102937.13;5072869;28;20048;-55
2022/01/15 08:08:53;;;;;;;55.10;19.00;;;;;;;2.87;100.00;102937.97;5075642;28;20619;-55
2022/01/15 08:11:21;;;;;;;56.63;20.45;;;;;;;2.81;100.00;102943.19;5075382;28;20045;-54
2022/01/15 08:13:49;;;;;;;61.92;18.77;;;;;;;2.73;100.00;102929.31;5075309;28;20052;-55
2022/01/15 08:16:17;;;;;;;65.05;18.60;;;;;;;2.70;100.00;102934.53;5074433;28;20052;-54
2022/01/15 08:18:46;;;;;;;65.95;19.58;;;;;;;2.66;100.00;102932.78;5070917;28;20602;-55
2022/01/15 08:21:15;;;;;;;72.75;21.60;;;;;;;2.70;100.00;102932.78;5072750;28;20067;-53
2022/01/15 08:23:43;;;;;;;71.20;19.98;;;;;;;2.72;100.00;102937.97;5075346;28;20072;-54
2022/01/15 08:26:11;;;;;;;71.18;19.85;;;;;;;2.72;100.00;102940.56;5075066;28;20109;-53
2022/01/15 08:28:39;;;;;;;75.72;20.85;;;;;;;2.71;100.00;102931.03;5075100;28;20148;-55
2022/01/15 08:31:07;;;;;;;71.82;23.20;;;;;;;2.79;100.00;102931.06;5073735;28;20072;-53
2022/01/15 08:33:36;;;;;;;73.32;20.33;;;;;;;2.86;100.00;102932.78;5075109;28;20044;-55
2022/01/15 08:36:06;;;;;;;59.92;19.90;;;;;;;2.87;100.00;102924.97;5075064;28;20098;-54
2022/01/15 08:38:34;;;;;;;62.95;20.85;;;;;;;2.87;100.00;102926.72;5072019;28;20052;-55
2022/01/15 08:41:22;;;;;;;68.72;21.75;;;;;;;2.93;100.00;102923.25;5071171;28;20044;-53
2022/01/15 08:43:50;;;;;;;78.20;20.77;;;;;;;2.87;100.00;102911.97;5075278;28;20075;-55
2022/01/15 08:46:19;;;;;;;70.88;21.15;;;;;;;2.87;100.00;102911.97;5073963;28;20609;-54
2022/01/15 08:48:48;;;;;;;75.47;20.77;;;;;;;2.77;100.00;102910.25;5071954;28;20384;-54
2022/01/15 08:51:18;;;;;;;64.13;19.45;;;;;;;2.74;100.00;102915.47;5070177;28;20079;-55
2022/01/15 08:53:46;;;;;;;64.78;20.63;;;;;;;2.69;100.00;102909.41;5074348;28;20078;-53
2022/01/15 08:56:14;;;;;;;54.88;18.95;;;;;;;2.76;100.00;102912.88;5074525;28;20049;-55
2022/01/15 08:58:42;;;;;;;65.70;18.00;;;;;;;2.76;100.00;102912.88;5075024;28;20052;-54
2022/01/15 09:01:13;;;;;;;57.80;18.70;;;;;;;2.81;100.00;102906.81;5074774;28;20376;-55
2022/01/15 09:03:43;;;;;;;62.97;19.00;;;;;;;2.80;100.00;102909.41;5074646;28;20051;-53
2022/01/15 09:06:12;;;;;;;81.07;19.65;;;;;;;2.76;100.00;102911.13;5074274;28;20130;-55
2022/01/15 09:08:42;;;;;;;74.38;21.13;;;;;;;2.81;100.00;102912.00;5072108;28;20056;-54
2022/01/15 09:11:10;;;;;;;76.70;19.60;;;;;;;2.78;100.00;102911.13;5070185;28;20062;-51
2022/01/15 09:13:40;;;;;;;73.00;21.10;;;;;;;2.83;100.00;102905.06;5072108;28;20502;-54
2022/01/15 09:16:08;;;;;;;61.70;19.50;;;;;;;2.75;100.00;102911.97;5074098;28;20491;-52
2022/01/15 09:18:38;;;;;;;63.40;20.02;;;;;;;2.83;100.00;102912.84;5072790;28;20052;-53
2022/01/15 09:21:07;;;;;;;63.50;21.00;;;;;;;2.85;100.00;102903.34;5074220;28;20395;-56
2022/01/15 09:23:35;;;;;;;68.72;20.92;;;;;;;2.81;100.00;102909.41;5074089;28;20093;-55
2022/01/15 09:26:18;;;;;;;94.95;20.05;;;;;;;2.76;100.00;102908.53;5071744;28;20487;-54
2022/01/15 09:31:32;;;;;;;71.32;18.27;;;;;;;2.78;100.00;102905.91;5073001;28;20491;-53
2022/01/15 09:34:00;;;;;;;73.10;19.95;;;;;;;2.85;100.00;102897.25;5070379;28;20098;-54
2022/01/15 09:36:29;;;;;;;66.15;18.98;;;;;;;2.86;100.00;102902.47;5071804;28;20499;-53
2022/01/15 09:38:57;;;;;;;65.00;20.90;;;;;;;2.85;100.00;102908.53;5070956;28;20102;-56
2022/01/15 09:41:27;;;;;;;63.65;17.63;;;;;;;2.81;100.00;102895.53;5069191;28;20044;-55
2022/01/15 09:43:56;;;;;;;57.92;17.08;;;;;;;2.86;100.00;102901.59;5073646;28;20048;-54
2022/01/15 09:46:25;;;;;;;57.97;16.52;;;;;;;2.83;100.00;102901.59;5072353;28;20495;-57
2022/01/15 09:48:54;;;;;;;46.33;16.63;;;;;;;2.78;100.00;102899.00;5069831;28;20048;-57
2022/01/15 09:51:22;;;;;;;70.00;15.98;;;;;;;2.70;100.00;102895.53;5067252;28;20113;-57
2022/01/15 09:53:51;;;;;;;45.95;14.85;;;;;;;2.67;100.00;102892.91;5052650;28;20053;-57
2022/01/15 09:56:19;;;;;;;79.70;17.05;;;;;;;2.65;100.00;102897.25;5065358;28;20052;-53
2022/01/15 09:58:49;;;;;;;52.00;15.35;;;;;;;2.62;100.00;102900.72;5071774;28;20165;-55
2022/01/15 10:01:17;;;;;;;66.95;16.77;;;;;;;2.55;100.00;102893.81;5071936;28;20048;-54
2022/01/15 10:03:45;;;;;;;59.70;16.40;;;;;;;2.65;100.00;102889.47;5072542;28;20048;-55
2022/01/15 10:06:13;;;;;;;86.20;17.58;;;;;;;2.74;100.00;102886.88;5072404;28;20052;-56
2022/01/15 10:08:58;;;;;;;60.53;18.50;;;;;;;2.72;100.00;102892.94;5072091;28;20054;-53
2022/01/15 10:11:44;;;;;;;65.40;17.67;;;;;;;2.84;100.00;102885.16;5072472;28;20044;-56
2022/01/15 10:14:27;;;;;;;51.33;17.30;;;;;;;2.86;100.00;102883.41;5071813;28;20110;-54
2022/01/15 10:16:57;;;;;;;58.90;18.83;;;;;;;2.84;100.00;102880.81;5071991;28;20047;-55
2022/01/15 10:19:30;;;;;;;54.40;17.02;;;;;;;2.85;100.00;102887.75;5072493;28;20049;-53
2022/01/15 10:22:10;;;;;;;48.65;17.27;;;;;;;2.92;100.00;102886.00;5072167;28;20054;-51
2022/01/15 10:24:39;;;;;;;62.33;16.35;;;;;;;3.00;100.00;102885.97;5071943;28;20047;-55
2022/01/15 10:27:25;;;;;;;71.90;18.15;;;;;;;2.89;100.00;102880.81;5072010;28;20055;-50
2022/01/15 10:30:01;;;;;;;56.10;16.50;;;;;;;2.90;100.00;102879.06;5071784;28;20525;-54
2022/01/15 10:32:32;;;;;;;61.47;18.85;;;;;;;2.93;100.00;102879.94;5071724;28;20044;-55
2022/01/15 10:35:01;;;;;;;77.78;19.75;;;;;;;2.90;100.00;102879.06;5071985;28;20048;-53
2022/01/15 10:37:36;;;;;;;72.65;19.23;;;;;;;2.93;100.00;102873.88;5071836;28;20044;-52
2022/01/15 10:40:07;;;;;;;76.15;21.17;;;;;;;2.99;100.00;102873.88;5071981;28;20063;-54
2022/01/15 10:42:36;;;;;;;51.05;17.63;;;;;;;3.01;100.00;102877.31;5071666;28;20048;-54
2022/01/15 10:45:11;;;;;;;52.13;17.25;;;;;;;2.97;100.00;102868.69;5071725;28;20387;-54
2022/01/15 10:47:42;;;;;;;59.20;16.88;;;;;;;2.95;100.00;102875.59;5071423;28;20067;-54
2022/01/15 10:50:20;;;;;;;53.72;15.15;;;;;;;2.99;100.00;102871.28;5071415;28;20044;-54
2022/01/15 10:52:48;;;;;;;66.47;19.25;;;;;;;2.98;100.00;102873.00;5071611;28;20044;-55
2022/01/15 10:55:18;;;;;;;64.65;17.08;;;;;;;2.88;100.00;102868.69;5071556;28;20048;-53
2022/01/15 10:57:53;;;;;;;55.55;17.15;;;;;;;2.91;100.00;102871.28;5071747;28;20113;-53
2022/01/15 11:00:25;;;;;;;52.92;16.42;;;;;;;2.88;100.00;102866.94;5071145;28;20501;-54
2022/01/15 11:02:55;;;;;;;61.25;17.08;;;;;;;3.00;100.00;102867.78;5071245;28;20059;-55
2022/01/15 11:05:30;;;;;;;68.85;19.38;;;;;;;3.00;100.00;102863.47;5071435;28;20052;-54
2022/01/15 11:08:10;;;;;;;54.50;19.85;;;;;;;3.08;100.00;102858.28;5070221;28;20503;-55
2022/01/15 11:10:40;;;;;;;58.53;17.48;;;;;;;2.95;100.00;102851.34;5070973;28;20052;-54
2022/01/15 11:13:11;;;;;;;52.95;17.60;;;;;;;3.03;100.00;102847.84;5070969;28;20068;-53
2022/01/15 11:15:43;;;;;;;61.55;19.92;;;;;;;3.00;100.00;102844.38;5071255;28;20530;-55
2022/01/15 11:18:15;;;;;;;61.30;17.40;;;;;;;2.98;100.00;102840.94;5071160;28;20071;-53
2022/01/15 11:20:46;;;;;;;;;;;;;;;2.86;100.00;102837.50;5071723;28;20048;-54
2022/01/15 11:23:16;;;;;;;60.75;16.90;;;;;;;2.94;100.00;102829.66;5071430;28;20291;-55
2022/01/15 11:25:45;;;;;;;58.13;15.93;;;;;;;2.94;100.00;102834.00;5071491;28;20552;-53
2022/01/15 11:28:14;;;;;;;50.22;16.75;;;;;;;2.87;100.00;102834.00;5071504;28;20127;-55
2022/01/15 11:30:45;;;;;;;69.50;17.52;;;;;;;2.74;100.00;102837.50;5071336;28;20036;-54
2022/01/15 11:33:14;;;;;;;57.10;16.73;;;;;;;2.68;100.00;102830.56;5071162;28;20075;-51